createdAt,value
2022-10-14T00:01:19.148Z,9.93
2022-10-14T00:03:47.751Z,8.85
2022-10-14T00:06:19.950Z,10.50
2022-10-14T00:08:48.338Z,12.80
2022-10-14T00:11:20.395Z,10.93
2022-10-14T00:13:48.763Z,11.98
2022-10-14T00:16:19.235Z,11.17
2022-10-14T00:18:47.212Z,12.13
2022-10-14T00:21:15.733Z,7.38
2022-10-14T00:23:44.035Z,6.43
2022-10-14T00:26:18.780Z,5.95
2022-10-14T00:28:47.186Z,7.30
2022-10-14T00:31:15.833Z,8.00
2022-10-14T00:33:45.443Z,6.70
2022-10-14T00:36:14.867Z,8.43
2022-10-14T00:38:43.242Z,8.00
2022-10-14T00:41:20.768Z,7.90
2022-10-14T00:43:58.278Z,7.97
2022-10-14T00:46:27.913Z,6.43
2022-10-14T00:49:04.698Z,10.73
2022-10-14T00:51:32.783Z,14.40
2022-10-14T00:54:03.004Z,9.50
2022-10-14T00:56:32.745Z,9.20
2022-10-14T00:59:01.796Z,6.68
2022-10-14T01:01:29.530Z,6.05
2022-10-14T01:03:59.427Z,7.35
2022-10-14T01:06:42.493Z,8.30
2022-10-14T01:09:23.632Z,6.45
2022-10-14T01:12:27.023Z,5.72
2022-10-14T01:14:59.832Z,5.82
2022-10-14T01:17:36.712Z,6.78
2022-10-14T01:20:28.716Z,6.93
2022-10-14T01:23:09.055Z,5.78
2022-10-14T01:25:50.477Z,5.15
2022-10-14T01:28:27.292Z,4.88
2022-10-14T01:31:01.864Z,7.25
2022-10-14T01:33:36.864Z,5.47
2022-10-14T01:36:11.073Z,4.97
2022-10-14T01:38:42.545Z,7.60
2022-10-14T01:41:15.738Z,5.15
2022-10-14T01:43:47.351Z,5.20
2022-10-14T01:46:20.980Z,5.70
2022-10-14T01:48:53.420Z,4.30
2022-10-14T01:51:24.732Z,4.75
2022-10-14T01:53:57.732Z,6.43
2022-10-14T01:56:28.326Z,5.95
2022-10-14T01:58:57.274Z,5.55
2022-10-14T02:01:26.625Z,4.60
2022-10-14T02:03:54.650Z,6.40
2022-10-14T02:06:26.162Z,5.18
2022-10-14T02:09:04.173Z,4.72
2022-10-14T02:11:38.984Z,5.60
2022-10-14T02:14:14.185Z,7.73
2022-10-14T02:16:50.990Z,7.32
2022-10-14T02:19:28.100Z,6.10
2022-10-14T02:22:03.009Z,5.60
2022-10-14T02:24:36.461Z,7.30
2022-10-14T02:27:10.795Z,6.20
2022-10-14T02:29:43.633Z,7.35
2022-10-14T02:32:16.179Z,7.20
2022-10-14T02:34:46.538Z,5.50
2022-10-14T02:37:16.922Z,6.72
2022-10-14T02:39:50.423Z,6.28
2022-10-14T02:42:18.245Z,4.82
2022-10-14T02:44:55.831Z,7.13
2022-10-14T02:47:25.013Z,4.28
2022-10-14T02:49:53.429Z,5.10
2022-10-14T02:52:25.168Z,4.53
2022-10-14T02:54:54.459Z,4.17
2022-10-14T02:57:23.330Z,4.40
2022-10-14T02:59:51.283Z,4.80
2022-10-14T03:02:19.399Z,4.25
2022-10-14T03:04:49.754Z,4.78
2022-10-14T03:07:18.102Z,3.80
2022-10-14T03:09:49.842Z,6.13
2022-10-14T03:12:18.660Z,6.88
2022-10-14T03:14:46.569Z,8.30
2022-10-14T03:17:17.473Z,5.72
2022-10-14T03:19:46.338Z,5.00
2022-10-14T03:22:17.911Z,3.47
2022-10-14T03:24:45.950Z,3.45
2022-10-14T03:27:40.195Z,3.58
2022-10-14T03:30:12.750Z,3.60
2022-10-14T03:32:52.102Z,4.57
2022-10-14T03:35:23.072Z,4.40
2022-10-14T03:37:59.312Z,3.65
2022-10-14T03:40:31.663Z,3.22
2022-10-14T03:43:02.121Z,5.90
2022-10-14T03:45:37.994Z,5.22
2022-10-14T03:48:07.055Z,3.33
2022-10-14T03:50:39.702Z,3.63
2022-10-14T03:53:10.834Z,4.20
2022-10-14T03:55:40.937Z,3.25
2022-10-14T03:58:10.897Z,6.43
2022-10-14T04:00:38.795Z,4.37
2022-10-14T04:03:20.024Z,9.75
2022-10-14T04:05:47.766Z,4.70
2022-10-14T04:08:20.553Z,5.43
2022-10-14T04:10:55.661Z,3.70
2022-10-14T04:13:24.684Z,3.30
2022-10-14T04:15:52.488Z,4.05
2022-10-14T04:18:24.767Z,4.10
2022-10-14T04:20:56.118Z,3.08
2022-10-14T04:23:27.621Z,6.00
2022-10-14T04:26:04.626Z,3.95
2022-10-14T04:28:33.151Z,5.27
2022-10-14T04:31:09.288Z,5.33
2022-10-14T04:33:49.210Z,5.50
2022-10-14T04:36:23.041Z,4.25
2022-10-14T04:38:52.159Z,4.32
2022-10-14T04:41:20.059Z,4.63
2022-10-14T04:43:49.988Z,5.20
2022-10-14T04:46:25.040Z,4.60
2022-10-14T04:48:53.009Z,5.20
2022-10-14T04:51:23.568Z,8.55
2022-10-14T04:54:18.675Z,5.32
2022-10-14T04:56:52.024Z,7.25
2022-10-14T04:59:20.734Z,6.95
2022-10-14T05:02:08.760Z,7.25
2022-10-14T05:04:44.480Z,5.25
2022-10-14T05:07:12.959Z,6.82
2022-10-14T05:09:46.300Z,7.53
2022-10-14T05:12:27.588Z,6.72
2022-10-14T05:15:00.317Z,7.32
2022-10-14T05:17:36.464Z,6.32
2022-10-14T05:20:05.204Z,7.43
2022-10-14T05:22:33.628Z,6.32
2022-10-14T05:25:03.123Z,5.72
2022-10-14T05:27:31.438Z,5.70
2022-10-14T05:30:03.666Z,8.27
2022-10-14T05:32:32.172Z,5.07
2022-10-14T05:35:06.715Z,5.80
2022-10-14T05:37:38.748Z,7.05
2022-10-14T05:40:11.211Z,9.77
2022-10-14T05:42:39.235Z,8.82
2022-10-14T05:45:07.936Z,10.65
2022-10-14T05:47:39.638Z,7.60
2022-10-14T05:50:15.112Z,7.40
2022-10-14T05:52:45.426Z,11.00
2022-10-14T05:55:26.355Z,10.85
2022-10-14T05:57:59.116Z,9.73
2022-10-14T06:00:33.038Z,7.33
2022-10-14T06:03:05.936Z,9.20
2022-10-14T06:05:36.844Z,10.82
2022-10-14T06:08:05.003Z,8.82
2022-10-14T06:10:37.223Z,14.68
2022-10-14T06:13:05.250Z,13.10
2022-10-14T06:15:36.241Z,10.70
2022-10-14T06:18:04.344Z,10.88
2022-10-14T06:20:33.335Z,12.27
2022-10-14T06:23:02.208Z,9.55
2022-10-14T06:25:32.331Z,8.93
2022-10-14T06:28:05.225Z,10.67
2022-10-14T06:30:33.024Z,8.70
2022-10-14T06:33:00.731Z,8.65
2022-10-14T06:35:28.982Z,9.82
2022-10-14T06:37:57.435Z,12.50
2022-10-14T06:40:27.558Z,7.70
2022-10-14T06:42:55.398Z,8.70
2022-10-14T06:45:26.935Z,8.57
2022-10-14T06:47:54.620Z,9.90
2022-10-14T06:50:22.380Z,11.00
2022-10-14T06:52:50.124Z,8.90
2022-10-14T06:55:18.147Z,10.85
2022-10-14T06:57:45.960Z,13.10
2022-10-14T07:00:14.517Z,10.57
2022-10-14T07:02:46.031Z,12.23
2022-10-14T07:05:13.849Z,12.32
2022-10-14T07:07:41.627Z,11.37
2022-10-14T07:10:10.213Z,11.73
2022-10-14T07:12:38.018Z,10.90
2022-10-14T07:15:06.494Z,10.82
2022-10-14T07:17:34.218Z,10.98
2022-10-14T07:20:03.328Z,10.18
2022-10-14T07:22:35.033Z,11.75
2022-10-14T07:25:06.370Z,9.90
2022-10-14T07:27:34.126Z,13.90
2022-10-14T07:30:05.362Z,12.90
2022-10-14T07:32:33.811Z,11.70
2022-10-14T07:35:02.981Z,12.43
2022-10-14T07:37:30.681Z,11.43
2022-10-14T07:39:58.570Z,11.35
2022-10-14T07:42:26.348Z,11.85
2022-10-14T07:44:57.610Z,11.57
2022-10-14T07:47:25.346Z,12.48
2022-10-14T07:49:53.125Z,13.43
2022-10-14T07:52:22.318Z,12.10
2022-10-14T07:54:52.443Z,10.33
2022-10-14T07:57:20.898Z,8.75
2022-10-14T07:59:48.844Z,10.70
2022-10-14T08:02:16.565Z,12.10
2022-10-14T08:04:44.288Z,11.07
2022-10-14T08:07:14.203Z,13.73
2022-10-14T08:09:43.278Z,10.07
2022-10-14T08:12:11.337Z,9.45
2022-10-14T08:14:41.509Z,9.55
2022-10-14T08:17:09.267Z,13.82
2022-10-14T08:19:37.069Z,12.23
2022-10-14T08:22:04.805Z,9.27
2022-10-14T08:24:32.490Z,7.90
2022-10-14T08:27:01.541Z,10.95
2022-10-14T08:29:29.462Z,10.45
2022-10-14T08:31:57.221Z,10.45
2022-10-14T08:34:27.952Z,9.93
2022-10-14T08:36:55.732Z,10.27
2022-10-14T08:39:23.516Z,10.23
2022-10-14T08:42:16.105Z,11.05
2022-10-14T08:44:51.020Z,10.93
2022-10-14T08:47:26.647Z,10.53
2022-10-14T08:50:02.495Z,9.80
2022-10-14T08:52:37.216Z,8.57
2022-10-14T08:55:17.481Z,9.90
2022-10-14T08:57:55.028Z,12.63
2022-10-14T09:00:23.621Z,8.85
2022-10-14T09:02:53.134Z,9.07
2022-10-14T09:05:23.696Z,10.18
2022-10-14T09:07:54.745Z,8.73
2022-10-14T09:10:30.112Z,10.50
2022-10-14T09:13:10.916Z,9.68
2022-10-14T09:15:42.177Z,8.35
2022-10-14T09:18:22.483Z,11.27
2022-10-14T09:20:50.707Z,9.50
2022-10-14T09:23:20.092Z,9.23
2022-10-14T09:25:56.817Z,10.43
2022-10-14T09:28:34.536Z,11.25
2022-10-14T09:31:02.477Z,7.80
2022-10-14T09:33:30.430Z,8.47
2022-10-14T09:38:27.938Z,6.68
2022-10-14T09:40:59.262Z,6.77
2022-10-14T09:43:29.741Z,7.95
2022-10-14T09:46:00.581Z,7.20
2022-10-14T09:48:37.401Z,7.35
2022-10-14T09:51:08.808Z,8.50
2022-10-14T09:53:41.143Z,8.25
2022-10-14T09:56:11.227Z,9.35
2022-10-14T09:58:47.021Z,6.72
2022-10-14T10:01:20.490Z,6.97
2022-10-14T10:03:50.325Z,6.07
2022-10-14T10:06:21.366Z,8.55
2022-10-14T10:08:58.014Z,8.20
2022-10-14T10:11:30.428Z,8.23
2022-10-14T10:14:16.827Z,7.00
2022-10-14T10:16:44.859Z,6.57
2022-10-14T10:19:28.160Z,7.00
2022-10-14T10:22:16.743Z,6.15
2022-10-14T10:24:45.365Z,7.27
2022-10-14T10:27:21.768Z,9.00
2022-10-14T10:29:51.039Z,8.90
2022-10-14T10:32:30.162Z,6.80
2022-10-14T10:35:20.947Z,7.65
2022-10-14T10:38:06.707Z,5.35
2022-10-14T10:40:41.184Z,5.60
2022-10-14T10:43:38.309Z,7.30
2022-10-14T10:46:25.611Z,7.23
2022-10-14T10:49:01.650Z,6.90
2022-10-14T10:51:35.599Z,8.10
2022-10-14T10:54:09.140Z,5.97
2022-10-14T10:56:43.733Z,6.30
2022-10-14T10:59:33.616Z,7.03
2022-10-14T11:02:34.113Z,8.33
2022-10-14T11:05:11.163Z,7.07
2022-10-14T11:08:08.906Z,9.37
2022-10-14T11:11:06.706Z,8.38
2022-10-14T11:13:46.472Z,6.53
2022-10-14T11:16:20.017Z,6.25
2022-10-14T11:18:51.856Z,5.67
2022-10-14T11:21:30.598Z,6.07
2022-10-14T11:24:06.852Z,6.60
2022-10-14T11:26:53.728Z,5.10
2022-10-14T11:29:39.778Z,7.90
2022-10-14T11:32:16.353Z,7.25
2022-10-14T11:34:54.075Z,7.47
2022-10-14T11:37:30.351Z,4.35
2022-10-14T11:40:01.617Z,5.25
2022-10-14T11:42:49.892Z,3.50
2022-10-14T11:45:41.259Z,4.97
2022-10-14T11:48:19.742Z,4.17
2022-10-14T11:50:56.417Z,3.30
2022-10-14T11:56:29.172Z,4.40
2022-10-14T11:59:03.170Z,4.73
2022-10-14T12:01:49.159Z,3.35
2022-10-14T12:04:25.645Z,3.65
2022-10-14T12:07:04.507Z,4.75
2022-10-14T12:09:39.807Z,4.15
2022-10-14T12:12:12.708Z,4.20
2022-10-14T12:14:45.925Z,5.30
2022-10-14T12:17:22.184Z,5.72
2022-10-14T12:19:51.233Z,4.70
2022-10-14T12:22:23.941Z,5.87
2022-10-14T12:24:54.044Z,4.18
2022-10-14T12:27:23.901Z,4.15
2022-10-14T12:29:55.621Z,3.80
2022-10-14T12:32:26.297Z,5.10
2022-10-14T12:34:55.535Z,3.58
2022-10-14T12:37:52.832Z,5.40
2022-10-14T12:40:31.582Z,4.77
2022-10-14T12:43:21.560Z,4.68
2022-10-14T12:45:55.763Z,3.47
2022-10-14T12:48:25.271Z,4.43
2022-10-14T12:50:58.997Z,5.03
2022-10-14T12:53:32.776Z,2.97
2022-10-14T12:56:02.371Z,4.93
2022-10-14T12:58:36.209Z,3.03
2022-10-14T13:01:07.870Z,4.93
2022-10-14T13:03:47.118Z,4.25
2022-10-14T13:06:42.232Z,3.40
2022-10-14T13:09:41.693Z,2.78
2022-10-14T13:12:40.892Z,3.95
2022-10-14T13:16:00.694Z,2.30
2022-10-14T13:18:52.857Z,3.53
2022-10-14T13:21:54.128Z,3.53
2022-10-14T13:24:27.631Z,3.50
2022-10-14T13:27:09.082Z,2.60
2022-10-14T13:29:57.584Z,3.00
2022-10-14T13:32:35.014Z,3.00
2022-10-14T13:35:15.094Z,3.63
2022-10-14T13:37:46.594Z,3.38
2022-10-14T13:40:23.753Z,1.70
2022-10-14T13:42:56.152Z,1.70
2022-10-14T13:45:31.774Z,3.00
2022-10-14T13:47:59.826Z,3.03
2022-10-14T13:50:36.574Z,2.83
2022-10-14T13:53:07.952Z,4.07
2022-10-14T13:55:44.920Z,2.05
2022-10-14T13:58:16.412Z,1.80
2022-10-14T14:00:52.984Z,4.07
2022-10-14T14:03:25.540Z,2.45
2022-10-14T14:05:54.550Z,3.08
2022-10-14T14:08:43.141Z,1.60
2022-10-14T14:11:19.200Z,1.40
2022-10-14T14:14:00.283Z,1.67
2022-10-14T14:16:33.569Z,1.58
2022-10-14T14:19:08.864Z,1.98
2022-10-14T14:21:37.699Z,1.97
2022-10-14T14:24:18.876Z,1.60
2022-10-14T14:26:54.846Z,3.05
2022-10-14T14:29:28.732Z,2.92
2022-10-14T14:32:07.229Z,2.50
2022-10-14T14:34:37.414Z,2.35
2022-10-14T14:37:25.179Z,1.40
2022-10-14T14:39:58.721Z,2.37
2022-10-14T14:42:28.317Z,1.40
2022-10-14T14:45:03.923Z,2.67
2022-10-14T14:47:32.692Z,1.30
2022-10-14T14:50:25.553Z,1.30
2022-10-14T14:52:51.476Z,2.60
2022-10-14T14:55:37.090Z,1.58
2022-10-14T14:58:07.582Z,2.72
2022-10-14T15:00:36.714Z,1.40
2022-10-14T15:03:06.532Z,2.30
2022-10-14T15:05:34.580Z,1.80
2022-10-14T15:08:03.559Z,1.20
2022-10-14T15:10:31.897Z,2.33
2022-10-14T15:13:02.629Z,1.57
2022-10-14T15:15:34.915Z,3.65
2022-10-14T15:18:16.468Z,2.27
2022-10-14T15:20:44.427Z,2.33
2022-10-14T15:23:40.909Z,2.13
2022-10-14T15:26:22.931Z,2.42
2022-10-14T15:29:16.580Z,1.70
2022-10-14T15:31:46.389Z,4.00
2022-10-14T15:34:23.162Z,2.17
2022-10-14T15:36:53.949Z,2.03
2022-10-14T15:39:22.689Z,3.65
2022-10-14T15:41:50.531Z,2.03
2022-10-14T15:44:18.259Z,1.80
2022-10-14T15:47:04.729Z,2.30
2022-10-14T15:49:40.059Z,2.90
2022-10-14T15:52:08.297Z,3.28
2022-10-14T15:54:36.017Z,3.00
2022-10-14T15:57:05.873Z,2.15
2022-10-14T15:59:36.034Z,2.58
2022-10-14T16:02:05.135Z,1.97
2022-10-14T16:04:35.201Z,3.33
2022-10-14T16:07:03.102Z,1.52
2022-10-14T16:09:31.175Z,2.95
2022-10-14T16:12:00.944Z,1.63
2022-10-14T16:14:29.021Z,3.07
2022-10-14T16:16:58.262Z,2.42
2022-10-14T16:19:26.300Z,1.65
2022-10-14T16:21:55.663Z,2.05
2022-10-14T16:24:25.544Z,2.20
2022-10-14T16:26:53.874Z,2.10
2022-10-14T16:29:22.415Z,2.60
2022-10-14T16:31:50.967Z,1.77
2022-10-14T16:34:19.683Z,1.83
2022-10-14T16:36:48.772Z,2.30
2022-10-14T16:39:19.219Z,2.77
2022-10-14T16:41:48.338Z,2.10
2022-10-14T16:44:25.233Z,1.50
2022-10-14T16:47:11.387Z,1.95
2022-10-14T16:49:39.802Z,2.25
2022-10-14T16:52:08.935Z,2.65
2022-10-14T16:54:38.201Z,1.53
2022-10-14T16:57:06.463Z,1.90
2022-10-14T16:59:34.359Z,2.70
2022-10-14T17:02:02.253Z,3.90
2022-10-14T17:04:30.031Z,2.60
2022-10-14T17:07:07.177Z,2.38
2022-10-14T17:09:36.067Z,1.60
2022-10-14T17:12:09.631Z,2.30
2022-10-14T17:14:42.979Z,1.85
2022-10-14T17:17:12.366Z,1.65
2022-10-14T17:19:40.178Z,2.90
2022-10-14T17:22:07.852Z,1.67
2022-10-14T17:24:35.640Z,1.40
2022-10-14T17:27:05.311Z,1.30
2022-10-14T17:29:33.395Z,1.40
2022-10-14T17:32:01.091Z,1.90
2022-10-14T17:34:28.781Z,1.70
2022-10-14T17:37:00.650Z,1.58
2022-10-14T17:39:29.758Z,1.10
2022-10-14T17:41:57.837Z,1.20
2022-10-14T17:44:28.682Z,1.88
2022-10-14T17:46:56.881Z,1.10
2022-10-14T17:49:24.670Z,1.40
2022-10-14T17:51:52.731Z,1.70
2022-10-14T17:54:21.007Z,1.73
2022-10-14T17:56:48.905Z,2.38
2022-10-14T17:59:16.623Z,2.45
2022-10-14T18:04:33.653Z,2.25
2022-10-14T18:07:01.618Z,2.05
2022-10-14T18:09:29.494Z,1.98
2022-10-14T18:12:13.427Z,2.00
2022-10-14T18:14:42.161Z,3.10
2022-10-14T18:17:12.958Z,2.38
2022-10-14T18:19:41.769Z,3.10
2022-10-14T18:22:10.959Z,1.63
2022-10-14T18:24:39.233Z,1.45
2022-10-14T18:27:07.074Z,1.30
2022-10-14T18:29:34.775Z,1.40
2022-10-14T18:32:02.598Z,2.40
2022-10-14T18:34:32.117Z,1.38
2022-10-14T18:36:59.931Z,2.30
2022-10-14T18:39:27.748Z,1.38
2022-10-14T18:41:55.504Z,2.42
2022-10-14T18:44:25.636Z,2.00
2022-10-14T18:46:53.403Z,2.60
2022-10-14T18:49:21.081Z,1.70
2022-10-14T18:51:50.529Z,2.00
2022-10-14T18:54:20.118Z,2.38
2022-10-14T18:56:48.621Z,2.75
2022-10-14T18:59:18.760Z,5.10
2022-10-14T19:01:47.714Z,2.53
2022-10-14T19:04:16.632Z,3.83
2022-10-14T19:06:48.765Z,3.03
2022-10-14T19:09:21.288Z,2.88
2022-10-14T19:11:51.900Z,3.67
2022-10-14T19:14:20.660Z,2.15
2022-10-14T19:16:49.619Z,2.20
2022-10-14T19:19:20.078Z,3.00
2022-10-14T19:21:50.821Z,2.03
2022-10-14T19:24:20.135Z,4.55
2022-10-14T19:26:48.840Z,2.80
2022-10-14T19:29:17.075Z,3.20
2022-10-14T19:31:45.088Z,2.83
2022-10-14T19:34:14.910Z,1.85
2022-10-14T19:36:45.865Z,1.90
2022-10-14T19:39:15.655Z,2.45
2022-10-14T19:41:46.435Z,3.63
2022-10-14T19:44:15.799Z,1.67
2022-10-14T19:46:44.242Z,2.08
2022-10-14T19:49:13.567Z,2.17
2022-10-14T19:51:41.603Z,2.10
2022-10-14T19:54:11.751Z,2.85
2022-10-14T19:56:39.602Z,1.48
2022-10-14T19:59:09.007Z,3.20
2022-10-14T20:01:37.162Z,2.20
2022-10-14T20:04:04.935Z,2.20
2022-10-14T20:06:34.300Z,2.20
2022-10-14T20:09:05.084Z,2.70
2022-10-14T20:11:32.849Z,2.10
2022-10-14T20:14:00.721Z,1.52
2022-10-14T20:16:30.023Z,3.70
2022-10-14T20:18:57.762Z,1.98
2022-10-14T20:21:26.280Z,2.05
2022-10-14T20:23:53.987Z,2.00
2022-10-14T20:26:23.001Z,2.15
2022-10-14T20:28:54.428Z,2.60
2022-10-14T20:31:26.115Z,2.80
2022-10-14T20:33:56.039Z,2.50
2022-10-14T20:36:24.198Z,2.70
2022-10-14T20:38:52.214Z,2.47
2022-10-14T20:41:22.070Z,2.05
2022-10-14T20:43:50.167Z,2.00
2022-10-14T20:46:21.848Z,1.67
2022-10-14T20:48:53.635Z,1.50
2022-10-14T20:51:25.263Z,3.03
2022-10-14T20:54:01.667Z,3.15
2022-10-14T20:56:33.681Z,2.20
2022-10-14T20:59:03.285Z,1.80
2022-10-14T21:01:31.645Z,2.70
2022-10-14T21:04:01.459Z,2.00
2022-10-14T21:06:32.826Z,2.05
2022-10-14T21:09:01.387Z,1.90
2022-10-14T21:11:29.424Z,4.65
2022-10-14T21:13:59.079Z,1.75
2022-10-14T21:16:29.175Z,1.98
2022-10-14T21:18:58.537Z,1.50
2022-10-14T21:21:28.638Z,1.90
2022-10-14T21:23:59.195Z,2.55
2022-10-14T21:26:26.978Z,2.40
2022-10-14T21:28:57.016Z,2.60
2022-10-14T21:31:27.758Z,1.98
2022-10-14T21:33:59.922Z,1.70
2022-10-14T21:36:30.846Z,2.00
2022-10-14T21:39:01.121Z,2.00
2022-10-14T21:41:29.431Z,1.48
2022-10-14T21:43:59.233Z,2.50
2022-10-14T21:46:27.796Z,1.90
2022-10-14T21:48:57.521Z,1.30
2022-10-14T21:51:26.700Z,1.65
2022-10-14T21:53:55.039Z,2.13
2022-10-14T21:56:24.571Z,3.40
2022-10-14T21:58:52.742Z,2.33
2022-10-14T22:01:22.755Z,2.70
2022-10-14T22:03:54.320Z,3.03
2022-10-14T22:06:22.083Z,2.53
2022-10-14T22:08:54.622Z,2.45
2022-10-14T22:11:26.863Z,2.53
2022-10-14T22:13:55.770Z,3.00
2022-10-14T22:16:24.254Z,3.22
2022-10-14T22:18:53.772Z,3.63
2022-10-14T22:21:26.127Z,2.60
2022-10-14T22:23:53.943Z,3.17
2022-10-14T22:26:27.100Z,2.10
2022-10-14T22:29:01.699Z,3.13
2022-10-14T22:31:33.119Z,3.03
2022-10-14T22:34:01.308Z,4.38
2022-10-14T22:36:30.090Z,2.13
2022-10-14T22:38:59.752Z,3.43
2022-10-14T22:41:35.140Z,3.40
2022-10-14T22:44:04.813Z,3.90
2022-10-14T22:46:37.824Z,2.35
2022-10-14T22:49:06.079Z,2.17
2022-10-14T22:51:35.986Z,2.97
2022-10-14T22:54:04.554Z,2.60
2022-10-14T22:56:33.792Z,2.28
2022-10-14T22:59:03.143Z,1.73
2022-10-14T23:01:31.885Z,2.87
2022-10-14T23:04:00.915Z,2.85
2022-10-14T23:06:29.429Z,2.72
2022-10-14T23:08:59.810Z,2.47
2022-10-14T23:11:28.503Z,2.22
2022-10-14T23:13:59.153Z,2.30
2022-10-14T23:16:29.812Z,2.03
2022-10-14T23:18:59.675Z,1.70
2022-10-14T23:21:31.880Z,1.47
2022-10-14T23:24:03.746Z,1.20
2022-10-14T23:26:33.170Z,1.00
2022-10-14T23:29:04.396Z,1.60
2022-10-14T23:31:34.041Z,0.80
2022-10-14T23:34:03.493Z,1.23
2022-10-14T23:36:31.255Z,1.65
2022-10-14T23:38:59.395Z,1.08
2022-10-14T23:41:27.133Z,0.90
2022-10-14T23:43:56.664Z,1.00
2022-10-14T23:46:25.822Z,1.45
2022-10-14T23:49:06.604Z,1.85
2022-10-14T23:51:36.174Z,0.90
2022-10-14T23:54:04.089Z,1.17
2022-10-14T23:56:31.914Z,0.70
2022-10-14T23:58:59.654Z,0.60
